createdAt,value
2024-01-12T00:00:01.859Z,89.6
2024-01-12T00:01:18.964Z,89.7
2024-01-12T00:02:36.069Z,89.8
2024-01-12T00:03:53.175Z,89.7
2024-01-12T00:05:10.280Z,89.7
2024-01-12T00:06:27.385Z,90
2024-01-12T00:07:44.490Z,90
2024-01-12T00:09:01.595Z,89.8
2024-01-12T00:10:18.700Z,90
2024-01-12T00:11:34.821Z,90.4
2024-01-12T00:12:51.927Z,90.5
2024-01-12T00:14:09.033Z,90.5
2024-01-12T00:15:26.138Z,90.5
2024-01-12T00:16:43.243Z,90.6
2024-01-12T00:18:00.348Z,90.3
2024-01-12T00:19:17.454Z,90
2024-01-12T00:20:34.559Z,90
2024-01-12T00:21:51.664Z,90
2024-01-12T00:23:08.770Z,90.4
2024-01-12T00:24:25.875Z,90.6
2024-01-12T00:25:42.980Z,90.5
2024-01-12T00:27:00.085Z,90.8
2024-01-12T00:28:16.206Z,91.2
2024-01-12T00:29:33.312Z,90.7
2024-01-12T00:30:50.417Z,90.7
2024-01-12T00:32:07.522Z,91
2024-01-12T00:33:24.627Z,90.7
2024-01-12T00:34:41.732Z,90.7
2024-01-12T00:35:58.837Z,90.8
2024-01-12T00:37:15.943Z,90.9
2024-01-12T00:38:33.048Z,91
2024-01-12T00:39:50.153Z,90.9
2024-01-12T00:41:07.259Z,90.9
2024-01-12T00:42:24.364Z,90.7
2024-01-12T00:43:41.469Z,90.5
2024-01-12T00:44:57.591Z,90.5
2024-01-12T00:46:14.696Z,90.5
2024-01-12T00:47:31.801Z,90.3
2024-01-12T00:48:48.907Z,90.5
2024-01-12T00:50:06.012Z,90.5
2024-01-12T00:51:23.117Z,90.5
2024-01-12T00:52:40.223Z,90.3
2024-01-12T00:53:57.328Z,90.3
2024-01-12T00:55:14.433Z,90
2024-01-12T00:56:31.538Z,90
2024-01-12T00:57:48.643Z,90
2024-01-12T00:59:05.749Z,90.4
2024-01-12T01:00:22.854Z,90.4
2024-01-12T01:01:38.975Z,90
2024-01-12T01:02:56.080Z,89.6
2024-01-12T01:04:13.186Z,89.6
2024-01-12T01:05:30.291Z,90
2024-01-12T01:06:47.396Z,89.7
2024-01-12T01:08:04.501Z,89.7
2024-01-12T01:09:21.606Z,89.5
2024-01-12T01:10:38.712Z,89.4
2024-01-12T01:11:55.817Z,89.3
2024-01-12T01:13:12.922Z,89.4
2024-01-12T01:14:30.027Z,89.5
2024-01-12T01:15:47.132Z,89.8
2024-01-12T01:17:04.237Z,90.3
2024-01-12T01:18:20.358Z,90.2
2024-01-12T01:19:37.463Z,90.2
2024-01-12T01:20:54.568Z,90.2
2024-01-12T01:22:11.674Z,90
2024-01-12T01:23:28.779Z,90
2024-01-12T01:24:45.883Z,90.2
2024-01-12T01:26:02.988Z,90.2
2024-01-12T01:27:20.094Z,89.8
2024-01-12T01:28:37.200Z,90
2024-01-12T01:29:54.305Z,90.2
2024-01-12T01:31:11.410Z,90.3
2024-01-12T01:32:28.516Z,90.3
2024-01-12T01:33:45.621Z,90.3
2024-01-12T01:35:01.742Z,90.3
2024-01-12T01:36:18.847Z,90.4
2024-01-12T01:37:35.953Z,90.3
2024-01-12T01:38:53.058Z,90.3
2024-01-12T01:40:10.163Z,89.8
2024-01-12T01:41:27.268Z,89.7
2024-01-12T01:42:44.373Z,89.8
2024-01-12T01:44:01.478Z,90.2
2024-01-12T01:45:18.583Z,90
2024-01-12T01:46:35.689Z,90
2024-01-12T01:47:52.794Z,90.3
2024-01-12T01:49:09.899Z,90.5
2024-01-12T01:50:27.004Z,90.9
2024-01-12T01:51:43.125Z,91.2
2024-01-12T01:53:00.230Z,91.5
2024-01-12T01:54:17.335Z,91.7
2024-01-12T01:55:34.441Z,91.7
2024-01-12T01:56:51.546Z,91.8
2024-01-12T01:58:08.651Z,91.7
2024-01-12T01:59:25.756Z,91.9
2024-01-12T02:00:42.861Z,91.7
2024-01-12T02:01:59.967Z,91.8
2024-01-12T02:03:17.072Z,91.5
2024-01-12T02:04:34.177Z,91.2
2024-01-12T02:05:51.282Z,91.3
2024-01-12T02:07:08.387Z,91.4
2024-01-12T02:08:24.509Z,91.6
2024-01-12T02:09:41.614Z,91.8
2024-01-12T02:10:58.719Z,91.8
2024-01-12T02:12:15.824Z,91.7
2024-01-12T02:13:32.929Z,91.6
2024-01-12T02:14:50.034Z,91.5
2024-01-12T02:16:07.140Z,91.7
2024-01-12T02:17:24.245Z,91.5
2024-01-12T02:18:41.350Z,91.5
2024-01-12T02:19:58.456Z,91.8
2024-01-12T02:21:15.561Z,91.9
2024-01-12T02:22:32.666Z,92.2
2024-01-12T02:23:49.771Z,92.3
2024-01-12T02:25:05.892Z,92.7
2024-01-12T02:26:22.997Z,92.4
2024-01-12T02:27:40.102Z,92.6
2024-01-12T02:28:57.208Z,92.6
2024-01-12T02:30:14.313Z,92.9
2024-01-12T02:31:31.418Z,92.9
2024-01-12T02:32:48.523Z,92.9
2024-01-12T02:34:05.628Z,92.8
2024-01-12T02:35:22.733Z,92.6
2024-01-12T02:36:39.839Z,92.4
2024-01-12T02:37:56.944Z,92.3
2024-01-12T02:39:14.049Z,92.1
2024-01-12T02:40:31.156Z,91.7
2024-01-12T02:41:47.277Z,91.8
2024-01-12T02:43:04.382Z,91.5
2024-01-12T02:44:21.487Z,91
2024-01-12T02:45:38.592Z,91
2024-01-12T02:46:55.697Z,90.9
2024-01-12T02:48:12.802Z,91
2024-01-12T02:49:29.907Z,90.9
2024-01-12T02:50:47.013Z,90.9
2024-01-12T02:52:04.118Z,90.9
2024-01-12T02:53:21.223Z,90.7
2024-01-12T02:54:38.328Z,90.7
2024-01-12T02:55:55.433Z,90.4
2024-01-12T02:57:12.538Z,90.2
2024-01-12T02:58:28.659Z,90
2024-01-12T02:59:45.765Z,90.2
2024-01-12T03:01:02.870Z,90.4
2024-01-12T03:02:19.975Z,90
2024-01-12T03:03:37.080Z,90.1
2024-01-12T03:04:54.185Z,89.8
2024-01-12T03:06:11.290Z,89.8
2024-01-12T03:07:28.396Z,89.6
2024-01-12T03:08:45.501Z,89.9
2024-01-12T03:10:02.606Z,90
2024-01-12T03:11:19.711Z,90.4
2024-01-12T03:12:36.816Z,90.2
2024-01-12T03:13:53.921Z,90
2024-01-12T03:15:10.043Z,90.2
2024-01-12T03:16:27.148Z,90.1
2024-01-12T03:17:44.253Z,90
2024-01-12T03:19:01.359Z,89.7
2024-01-12T03:20:18.464Z,89.7
2024-01-12T03:21:35.570Z,89.9
2024-01-12T03:22:52.675Z,89.9
2024-01-12T03:24:09.781Z,89.9
2024-01-12T03:25:26.886Z,89.8
2024-01-12T03:26:43.991Z,89.8
2024-01-12T03:28:01.096Z,89.8
2024-01-12T03:29:18.201Z,90
2024-01-12T03:30:35.306Z,90
2024-01-12T03:31:51.428Z,90
2024-01-12T03:33:08.533Z,90
2024-01-12T03:34:25.638Z,90
2024-01-12T03:35:42.744Z,89.9
2024-01-12T03:36:59.850Z,89.6
2024-01-12T03:38:16.955Z,89.8
2024-01-12T03:39:34.060Z,90.4
2024-01-12T03:40:51.165Z,91.1
2024-01-12T03:42:08.271Z,91.4
2024-01-12T03:43:25.376Z,91.8
2024-01-12T03:44:42.481Z,91.8
2024-01-12T03:45:59.587Z,91.8
2024-01-12T03:47:16.692Z,91.5
2024-01-12T03:48:32.813Z,91.9
2024-01-12T03:49:49.918Z,92.1
2024-01-12T03:51:07.023Z,92.2
2024-01-12T03:52:24.128Z,92.3
2024-01-12T03:53:41.233Z,92.1
2024-01-12T03:54:58.339Z,92.1
2024-01-12T03:56:15.444Z,92.1
2024-01-12T03:57:32.549Z,92.1
2024-01-12T03:58:49.654Z,92
2024-01-12T04:00:06.760Z,91.6
2024-01-12T04:01:23.865Z,91.8
2024-01-12T04:02:40.970Z,91.7
2024-01-12T04:03:58.075Z,91.8
2024-01-12T04:05:14.196Z,91.7
2024-01-12T04:06:31.301Z,91.9
2024-01-12T04:07:48.407Z,91.7
2024-01-12T04:09:05.512Z,92
2024-01-12T04:10:22.617Z,92.3
2024-01-12T04:11:39.722Z,92.6
2024-01-12T04:12:55.844Z,93.1
2024-01-12T04:14:12.949Z,93.6
2024-01-12T04:15:30.054Z,93.9
2024-01-12T04:16:47.159Z,93.9
2024-01-12T04:18:04.264Z,93.8
2024-01-12T04:19:21.370Z,93.4
2024-01-12T04:20:38.475Z,92.6
2024-01-12T04:21:55.580Z,92.7
2024-01-12T04:23:12.686Z,92.8
2024-01-12T04:24:29.791Z,92.4
2024-01-12T04:25:46.896Z,92.2
2024-01-12T04:27:04.001Z,91.9
2024-01-12T04:28:21.107Z,91.7
2024-01-12T04:29:37.228Z,91.8
2024-01-12T04:30:54.333Z,91.8
2024-01-12T04:32:11.439Z,91.7
2024-01-12T04:33:28.544Z,91.7
2024-01-12T04:34:45.650Z,91.7
2024-01-12T04:36:02.755Z,91.5
2024-01-12T04:37:19.860Z,91.2
2024-01-12T04:38:36.965Z,91.1
2024-01-12T04:39:54.071Z,90.7
2024-01-12T04:41:11.176Z,90.9
2024-01-12T04:42:28.282Z,91
2024-01-12T04:43:45.387Z,91.2
2024-01-12T04:45:02.492Z,91.7
2024-01-12T04:46:18.614Z,92.4
2024-01-12T04:47:35.719Z,92.7
2024-01-12T04:48:52.824Z,92.7
2024-01-12T04:50:09.930Z,92.5
2024-01-12T04:51:27.035Z,92.2
2024-01-12T04:52:44.140Z,92
2024-01-12T04:54:01.246Z,91.8
2024-01-12T04:55:18.351Z,91.8
2024-01-12T04:56:35.457Z,92.2
2024-01-12T04:57:52.562Z,92.8
2024-01-12T04:59:09.667Z,93.2
2024-01-12T05:00:26.772Z,93.7
2024-01-12T05:01:43.877Z,93.7
2024-01-12T05:02:59.999Z,93.2
2024-01-12T05:04:17.104Z,93.3
2024-01-12T05:05:34.209Z,93.7
2024-01-12T05:06:51.315Z,93.9
2024-01-12T05:08:08.420Z,94
2024-01-12T05:09:25.525Z,93.8
2024-01-12T05:10:42.630Z,93.7
2024-01-12T05:11:59.735Z,93.6
2024-01-12T05:13:16.840Z,93.7
2024-01-12T05:14:33.945Z,93.8
2024-01-12T05:15:51.051Z,93.9
2024-01-12T05:17:08.156Z,93.7
2024-01-12T05:18:25.261Z,93.4
2024-01-12T05:19:41.382Z,93.2
2024-01-12T05:20:58.487Z,93
2024-01-12T05:22:15.592Z,92.8
2024-01-12T05:23:32.697Z,92.7
2024-01-12T05:24:49.803Z,92.9
2024-01-12T05:26:06.908Z,92.9
2024-01-12T05:27:24.013Z,93
2024-01-12T05:28:41.118Z,93.5
2024-01-12T05:29:58.223Z,93.7
2024-01-12T05:31:15.329Z,93.7
2024-01-12T05:32:32.434Z,93.7
2024-01-12T05:33:49.539Z,93.9
2024-01-12T05:35:06.644Z,93.8
2024-01-12T05:36:22.765Z,93.9
2024-01-12T05:37:39.870Z,93.9
2024-01-12T05:38:56.976Z,93.9
2024-01-12T05:40:14.082Z,93.9
2024-01-12T05:41:31.187Z,94.1
2024-01-12T05:42:48.292Z,93.8
2024-01-12T05:44:05.397Z,93.7
2024-01-12T05:45:22.503Z,93.5
2024-01-12T05:46:39.608Z,93.4
2024-01-12T05:47:56.713Z,93.2
2024-01-12T05:49:13.818Z,93.1
2024-01-12T05:50:30.923Z,93.1
2024-01-12T05:51:48.029Z,93
2024-01-12T05:53:04.150Z,92.5
2024-01-12T05:54:21.255Z,92.7
2024-01-12T05:55:38.360Z,92.6
2024-01-12T05:56:55.465Z,92.5
2024-01-12T05:58:12.570Z,92.5
2024-01-12T05:59:29.675Z,92.3
2024-01-12T06:00:46.781Z,92.9
2024-01-12T06:02:03.886Z,93.1
2024-01-12T06:03:20.991Z,93.4
2024-01-12T06:04:38.096Z,93.1
2024-01-12T06:05:55.201Z,92.7
2024-01-12T06:07:12.307Z,92.9
2024-01-12T06:08:29.412Z,93.1
2024-01-12T06:09:45.533Z,93.4
2024-01-12T06:11:02.638Z,93.2
2024-01-12T06:12:19.743Z,93.1
2024-01-12T06:13:36.849Z,93.2
2024-01-12T06:14:53.954Z,93.3
2024-01-12T06:16:11.060Z,93.2
2024-01-12T06:17:28.165Z,93.3
2024-01-12T06:18:45.270Z,93.1
2024-01-12T06:20:02.375Z,93
2024-01-12T06:21:19.480Z,92.9
2024-01-12T06:22:36.586Z,92.6
2024-01-12T06:23:53.691Z,92.9
2024-01-12T06:25:10.796Z,93.1
2024-01-12T06:26:26.917Z,93.5
2024-01-12T06:27:44.023Z,93.8
2024-01-12T06:29:01.128Z,94.3
2024-01-12T06:30:18.233Z,94.2
2024-01-12T06:31:35.338Z,94.1
2024-01-12T06:32:52.443Z,93.8
2024-01-12T06:34:09.549Z,93.6
2024-01-12T06:35:26.654Z,93.8
2024-01-12T06:36:43.759Z,93.8
2024-01-12T06:38:00.864Z,93.6
2024-01-12T06:39:17.969Z,93.3
2024-01-12T06:40:35.074Z,93
2024-01-12T06:41:52.179Z,93.2
2024-01-12T06:43:08.301Z,93.7
2024-01-12T06:44:25.406Z,94
2024-01-12T06:45:42.511Z,94.5
2024-01-12T06:46:59.616Z,94.4
2024-01-12T06:48:16.722Z,94.6
2024-01-12T06:49:33.827Z,94.8
2024-01-12T06:50:50.932Z,95
2024-01-12T06:52:08.037Z,94.9
2024-01-12T06:53:25.142Z,94.9
2024-01-12T06:54:42.247Z,94.8
2024-01-12T06:55:59.353Z,94.9
2024-01-12T06:57:16.458Z,94.7
2024-01-12T06:58:33.563Z,94.8
2024-01-12T06:59:49.684Z,94.7
2024-01-12T07:01:06.790Z,94.3
2024-01-12T07:02:23.895Z,94.2
2024-01-12T07:03:41.000Z,94.1
2024-01-12T07:04:58.105Z,93.9
2024-01-12T07:06:15.210Z,93.7
2024-01-12T07:07:32.316Z,93.7
2024-01-12T07:08:49.421Z,93.3
2024-01-12T07:10:06.527Z,92.9
2024-01-12T07:11:23.632Z,93
2024-01-12T07:12:40.738Z,93
2024-01-12T07:13:57.843Z,92.4
2024-01-12T07:15:14.948Z,92.6
2024-01-12T07:16:31.069Z,93.2
2024-01-12T07:17:48.174Z,93.1
2024-01-12T07:19:05.280Z,93.6
2024-01-12T07:20:22.385Z,93.6
2024-01-12T07:21:39.490Z,93.5
2024-01-12T07:22:56.595Z,93.5
2024-01-12T07:24:13.701Z,93.9
2024-01-12T07:25:30.806Z,93.9
2024-01-12T07:26:47.911Z,93.7
2024-01-12T07:28:05.016Z,93.6
2024-01-12T07:29:22.122Z,93.8
2024-01-12T07:30:39.227Z,93.8
2024-01-12T07:31:56.332Z,93.7
2024-01-12T07:33:12.453Z,93.4
2024-01-12T07:34:29.558Z,93.3
2024-01-12T07:35:46.663Z,93.3
2024-01-12T07:37:03.769Z,93.7
2024-01-12T07:38:20.874Z,93.5
2024-01-12T07:39:37.979Z,93.5
2024-01-12T07:40:55.084Z,93.1
2024-01-12T07:42:12.190Z,92.3
2024-01-12T07:43:29.295Z,92
2024-01-12T07:44:46.400Z,92.1
2024-01-12T07:46:03.505Z,92
2024-01-12T07:47:20.610Z,92.3
2024-01-12T07:48:37.716Z,92.8
2024-01-12T07:49:53.837Z,93.1
2024-01-12T07:51:10.942Z,93.4
2024-01-12T07:52:28.047Z,93.6
2024-01-12T07:53:45.153Z,93.8
2024-01-12T07:55:02.258Z,94.1
2024-01-12T07:56:19.363Z,94.4
2024-01-12T07:57:36.469Z,94
2024-01-12T07:58:53.574Z,93.8
2024-01-12T08:00:10.679Z,94.1
2024-01-12T08:01:27.785Z,94.4
2024-01-12T08:02:44.891Z,94.8
2024-01-12T08:04:01.996Z,95.2
2024-01-12T08:05:19.102Z,95.2
2024-01-12T08:06:35.223Z,95.1
2024-01-12T08:07:52.328Z,94.8
2024-01-12T08:09:09.434Z,94.2
2024-01-12T08:10:26.539Z,93.7
2024-01-12T08:11:43.644Z,93.2
2024-01-12T08:13:00.749Z,92.9
2024-01-12T08:14:17.855Z,92.7
2024-01-12T08:15:34.960Z,92.7
2024-01-12T08:16:52.065Z,92.2
2024-01-12T08:18:09.171Z,91.7
2024-01-12T08:19:26.276Z,91.4
2024-01-12T08:20:43.381Z,91.1
2024-01-12T08:22:00.486Z,90.5
2024-01-12T08:23:16.607Z,91.1
2024-01-12T08:24:33.712Z,91.4
2024-01-12T08:25:50.818Z,91.4
2024-01-12T08:27:07.923Z,91.1
2024-01-12T08:28:25.029Z,91
2024-01-12T08:29:42.134Z,91.2
2024-01-12T08:30:58.256Z,91.3
2024-01-12T08:32:15.361Z,91
2024-01-12T08:33:32.466Z,91.2
2024-01-12T08:34:49.569Z,90.9
2024-01-12T08:36:06.674Z,90.7
2024-01-12T08:37:23.780Z,90.5
2024-01-12T08:38:40.885Z,90.3
2024-01-12T08:39:57.990Z,90.3
2024-01-12T08:41:15.095Z,90.4
2024-01-12T08:42:32.200Z,90.1
2024-01-12T08:43:49.305Z,89.8
2024-01-12T08:45:06.410Z,89.8
2024-01-12T08:46:23.515Z,89.4
2024-01-12T08:47:39.636Z,89.3
2024-01-12T08:48:56.742Z,89.3
2024-01-12T08:50:13.847Z,89.6
2024-01-12T08:51:30.952Z,89.8
2024-01-12T08:52:48.057Z,89.4
2024-01-12T08:54:05.162Z,89.3
2024-01-12T08:55:22.267Z,89.2
2024-01-12T08:56:39.372Z,88.8
2024-01-12T08:57:56.477Z,88.8
2024-01-12T08:59:13.583Z,88.8
2024-01-12T09:00:30.688Z,89.2
2024-01-12T09:01:47.793Z,89.6
2024-01-12T09:03:04.898Z,90.1
2024-01-12T09:04:21.019Z,90.3
2024-01-12T09:05:38.124Z,90.2
2024-01-12T09:06:55.230Z,90.2
2024-01-12T09:08:12.335Z,90.3
2024-01-12T09:09:29.440Z,90.4
2024-01-12T09:10:46.545Z,89.9
2024-01-12T09:12:03.651Z,90
2024-01-12T09:13:20.756Z,90.2
2024-01-12T09:14:37.861Z,89.9
2024-01-12T09:15:54.966Z,89.7
2024-01-12T09:17:12.071Z,90.1
2024-01-12T09:18:29.177Z,89.7
2024-01-12T09:19:46.282Z,89.6
2024-01-12T09:21:02.403Z,90
2024-01-12T09:22:19.509Z,90
2024-01-12T09:23:36.614Z,89.7
2024-01-12T09:24:53.719Z,89.1
2024-01-12T09:26:10.824Z,89.2
2024-01-12T09:27:27.929Z,89.3
2024-01-12T09:28:45.034Z,89.3
2024-01-12T09:30:02.139Z,89.5
2024-01-12T09:31:19.245Z,89.4
2024-01-12T09:32:36.350Z,89.2
2024-01-12T09:33:53.455Z,88.9
2024-01-12T09:35:10.561Z,88.1
2024-01-12T09:36:27.666Z,88.1
2024-01-12T09:37:43.787Z,88.1
2024-01-12T09:39:00.892Z,88.3
2024-01-12T09:40:17.997Z,88.2
2024-01-12T09:41:35.102Z,88.2
2024-01-12T09:42:52.207Z,88.7
2024-01-12T09:44:09.312Z,89
2024-01-12T09:45:26.417Z,89.2
2024-01-12T09:46:43.523Z,88.8
2024-01-12T09:48:00.628Z,88.5
2024-01-12T09:49:17.733Z,88.7
2024-01-12T09:50:34.838Z,88.5
2024-01-12T09:51:51.943Z,87.6
2024-01-12T09:53:09.048Z,87.9
2024-01-12T09:54:25.169Z,88.1
2024-01-12T09:55:42.275Z,88.7
2024-01-12T09:56:59.380Z,89.6
2024-01-12T09:58:16.485Z,90
2024-01-12T09:59:33.591Z,89.9
2024-01-12T10:00:50.696Z,89.8
2024-01-12T10:02:07.801Z,90.5
2024-01-12T10:03:24.906Z,90.5
2024-01-12T10:04:42.011Z,90.8
2024-01-12T10:05:59.117Z,90.8
2024-01-12T10:07:16.222Z,90.8
2024-01-12T10:08:33.327Z,90.6
2024-01-12T10:09:50.432Z,90.3
2024-01-12T10:11:06.553Z,90
2024-01-12T10:12:23.657Z,89.3
2024-01-12T10:13:40.762Z,88.9
2024-01-12T10:14:57.867Z,89.2
2024-01-12T10:16:14.972Z,89.1
2024-01-12T10:17:32.078Z,89.1
2024-01-12T10:18:49.183Z,88.7
2024-01-12T10:20:06.288Z,88.2
2024-01-12T10:21:23.394Z,88
2024-01-12T10:22:40.499Z,88.1
2024-01-12T10:23:57.604Z,88.4
2024-01-12T10:25:14.709Z,88.6
2024-01-12T10:26:31.814Z,89
2024-01-12T10:27:47.936Z,89.3
2024-01-12T10:29:05.041Z,89.4
2024-01-12T10:30:22.147Z,89
2024-01-12T10:31:39.252Z,88.5
2024-01-12T10:32:56.357Z,87.4
2024-01-12T10:34:13.462Z,86.6
2024-01-12T10:35:30.568Z,86.5
2024-01-12T10:36:47.673Z,86.4
2024-01-12T10:38:04.778Z,86.3
2024-01-12T10:39:21.883Z,86.2
2024-01-12T10:40:38.989Z,85.7
2024-01-12T10:41:56.094Z,86
2024-01-12T10:43:13.199Z,85.9
2024-01-12T10:44:29.320Z,85.1
2024-01-12T10:45:46.426Z,84.9
2024-01-12T10:47:03.531Z,85
2024-01-12T10:48:20.636Z,84.4
2024-01-12T10:49:37.741Z,84.7
2024-01-12T10:50:54.847Z,84.6
2024-01-12T10:52:11.952Z,84.2
2024-01-12T10:53:29.057Z,84.2
2024-01-12T10:54:46.162Z,84.4
2024-01-12T10:56:03.267Z,84.7
2024-01-12T10:57:20.372Z,85.2
2024-01-12T10:58:37.477Z,85.5
2024-01-12T10:59:54.582Z,85.5
2024-01-12T11:01:10.703Z,85.6
2024-01-12T11:02:27.808Z,85.6
2024-01-12T11:03:44.913Z,85.3
2024-01-12T11:05:02.018Z,85.4
2024-01-12T11:06:19.123Z,85.7
2024-01-12T11:07:36.229Z,86.3
2024-01-12T11:08:53.334Z,86.7
2024-01-12T11:10:10.439Z,86.9
2024-01-12T11:11:27.544Z,86.9
2024-01-12T11:12:44.649Z,86.7
2024-01-12T11:14:01.755Z,86.6
2024-01-12T11:15:18.860Z,87
2024-01-12T11:16:35.965Z,86.8
2024-01-12T11:17:52.086Z,86.5
2024-01-12T11:19:09.191Z,86.4
2024-01-12T11:20:26.296Z,86.5
2024-01-12T11:21:43.402Z,86.5
2024-01-12T11:23:00.507Z,86.4
2024-01-12T11:24:17.612Z,85.9
2024-01-12T11:25:34.717Z,85.5
2024-01-12T11:26:51.822Z,85.3
2024-01-12T11:28:08.927Z,85.2
2024-01-12T11:29:26.032Z,85.4
2024-01-12T11:30:43.137Z,85.8
2024-01-12T11:32:00.243Z,85.3
2024-01-12T11:33:17.348Z,85.9
2024-01-12T11:34:33.469Z,85.8
2024-01-12T11:35:50.575Z,85.3
2024-01-12T11:37:07.680Z,84.6
2024-01-12T11:38:24.785Z,84.5
2024-01-12T11:39:41.890Z,84.9
2024-01-12T11:40:58.995Z,84.9
2024-01-12T11:42:16.100Z,85.2
2024-01-12T11:43:33.205Z,85.2
2024-01-12T11:44:50.310Z,85.1
2024-01-12T11:46:07.415Z,85
2024-01-12T11:47:24.520Z,84.8
2024-01-12T11:48:41.625Z,85.3
2024-01-12T11:49:58.730Z,85.6
2024-01-12T11:51:14.851Z,84.6
2024-01-12T11:52:31.956Z,84.1
2024-01-12T11:53:49.060Z,83.4
2024-01-12T11:55:06.165Z,83.2
2024-01-12T11:56:23.270Z,82.8
2024-01-12T11:57:40.375Z,82.8
2024-01-12T11:58:57.480Z,83
2024-01-12T12:00:14.585Z,82.9
2024-01-12T12:01:31.690Z,83
2024-01-12T12:02:48.796Z,82.7
2024-01-12T12:04:05.901Z,82.9
2024-01-12T12:05:23.006Z,83.3
2024-01-12T12:06:40.111Z,83.8
2024-01-12T12:07:56.232Z,83.8
2024-01-12T12:09:13.337Z,83.8
2024-01-12T12:10:30.442Z,83.7
2024-01-12T12:11:47.546Z,83.3
2024-01-12T12:13:04.651Z,82.6
2024-01-12T12:14:21.756Z,82.9
2024-01-12T12:15:38.861Z,83.7
2024-01-12T12:16:55.966Z,83.9
2024-01-12T12:18:13.071Z,83.8
2024-01-12T12:19:30.176Z,83.6
2024-01-12T12:20:47.281Z,83.4
2024-01-12T12:22:04.385Z,83.6
2024-01-12T12:23:21.490Z,84
2024-01-12T12:24:37.611Z,84.1
2024-01-12T12:25:54.716Z,84.2
2024-01-12T12:27:11.821Z,84
2024-01-12T12:28:28.926Z,84
2024-01-12T12:29:46.031Z,83.9
2024-01-12T12:31:03.136Z,84
2024-01-12T12:32:20.241Z,84.4
2024-01-12T12:33:37.346Z,84.4
2024-01-12T12:34:54.451Z,84.3
2024-01-12T12:36:11.556Z,84.3
2024-01-12T12:37:28.660Z,84.3
2024-01-12T12:38:45.765Z,84.3
2024-01-12T12:40:02.870Z,84.2
2024-01-12T12:41:18.991Z,84.2
2024-01-12T12:42:36.096Z,84.1
2024-01-12T12:43:53.201Z,84.1
2024-01-12T12:45:10.306Z,84.3
2024-01-12T12:46:27.411Z,84.1
2024-01-12T12:47:44.516Z,83.7
2024-01-12T12:49:00.637Z,83.4
2024-01-12T12:50:17.742Z,83.2
2024-01-12T12:51:34.847Z,83.3
2024-01-12T12:52:51.952Z,83.6
2024-01-12T12:54:09.057Z,83.9
2024-01-12T12:55:26.162Z,84
2024-01-12T12:56:43.267Z,83.8
2024-01-12T12:58:00.372Z,83.7
2024-01-12T12:59:17.477Z,84.1
2024-01-12T13:00:34.582Z,84.5
2024-01-12T13:01:51.687Z,84.5
2024-01-12T13:03:08.792Z,84.8
2024-01-12T13:04:25.897Z,84.5
2024-01-12T13:05:42.018Z,84.8
2024-01-12T13:06:59.123Z,84.5
2024-01-12T13:08:16.228Z,84.6
2024-01-12T13:09:33.333Z,84.8
2024-01-12T13:10:50.438Z,85.1
2024-01-12T13:12:07.543Z,85.2
2024-01-12T13:13:24.648Z,85.1
2024-01-12T13:14:41.753Z,85
2024-01-12T13:15:58.858Z,85.4
2024-01-12T13:17:15.963Z,85.4
2024-01-12T13:18:33.068Z,85.1
2024-01-12T13:19:50.173Z,84.8
2024-01-12T13:21:07.278Z,84.5
2024-01-12T13:22:23.399Z,84.4
2024-01-12T13:23:40.504Z,84.3
2024-01-12T13:24:57.609Z,84.2
2024-01-12T13:26:14.714Z,83.8
2024-01-12T13:27:31.819Z,83.7
2024-01-12T13:28:48.924Z,83.8
2024-01-12T13:30:06.030Z,83.9
2024-01-12T13:31:23.135Z,84.4
2024-01-12T13:32:40.240Z,84.8
2024-01-12T13:33:57.345Z,84.8
2024-01-12T13:35:14.449Z,84.3
2024-01-12T13:36:31.554Z,84.8
2024-01-12T13:37:48.659Z,85.4
2024-01-12T13:39:04.780Z,85.9
2024-01-12T13:40:21.885Z,85.9
2024-01-12T13:41:38.990Z,86
2024-01-12T13:42:56.095Z,86.1
2024-01-12T13:44:13.200Z,86.1
2024-01-12T13:45:30.305Z,86.2
2024-01-12T13:46:47.410Z,86.7
2024-01-12T13:48:04.514Z,86.8
2024-01-12T13:49:21.620Z,87.1
2024-01-12T13:50:38.725Z,86.6
2024-01-12T13:51:55.830Z,86.3
2024-01-12T13:53:12.935Z,86
2024-01-12T13:54:30.040Z,86.3
2024-01-12T13:55:46.161Z,86.5
2024-01-12T13:57:03.266Z,86.6
2024-01-12T13:58:20.371Z,87.4
2024-01-12T13:59:37.476Z,87.4
2024-01-12T14:00:54.581Z,87
2024-01-12T14:02:11.686Z,86.7
2024-01-12T14:03:28.791Z,86.4
2024-01-12T14:04:45.896Z,86
2024-01-12T14:06:03.001Z,85.8
2024-01-12T14:07:20.106Z,85.3
2024-01-12T14:08:37.211Z,86.1
2024-01-12T14:09:54.316Z,86.2
2024-01-12T14:11:11.422Z,86
2024-01-12T14:12:27.543Z,85.8
2024-01-12T14:13:44.648Z,86.1
2024-01-12T14:15:01.753Z,86
2024-01-12T14:16:18.858Z,85.8
2024-01-12T14:17:35.963Z,85.6
2024-01-12T14:18:53.068Z,85.5
2024-01-12T14:20:10.173Z,85.4
2024-01-12T14:21:27.277Z,85.2
2024-01-12T14:22:44.383Z,85.3
2024-01-12T14:24:01.487Z,85.6
2024-01-12T14:25:18.592Z,85.6
2024-01-12T14:26:35.697Z,85.7
2024-01-12T14:27:52.802Z,85.5
2024-01-12T14:29:08.923Z,85.5
2024-01-12T14:30:26.028Z,85.4
2024-01-12T14:31:43.132Z,85.4
2024-01-12T14:33:00.237Z,85.4
2024-01-12T14:34:17.342Z,85.3
2024-01-12T14:35:34.447Z,85.3
2024-01-12T14:36:51.552Z,85.7
2024-01-12T14:38:08.657Z,85.8
2024-01-12T14:39:25.762Z,85.8
2024-01-12T14:40:42.867Z,85.8
2024-01-12T14:41:59.972Z,85.8
2024-01-12T14:43:17.076Z,85.8
2024-01-12T14:44:34.182Z,86
2024-01-12T14:45:50.303Z,85.8
2024-01-12T14:47:07.408Z,85.8
2024-01-12T14:48:24.512Z,86.1
2024-01-12T14:49:41.617Z,86.2
2024-01-12T14:50:58.723Z,86.3
2024-01-12T14:52:15.828Z,86.3
2024-01-12T14:53:32.933Z,86.7
2024-01-12T14:54:50.038Z,86.6
2024-01-12T14:56:07.144Z,86.8
2024-01-12T14:57:24.249Z,87.2
2024-01-12T14:58:41.354Z,87.3
2024-01-12T14:59:58.459Z,87.3
2024-01-12T15:01:15.564Z,87.3
2024-01-12T15:02:31.685Z,87
2024-01-12T15:03:48.790Z,86.7
2024-01-12T15:05:05.895Z,86.6
2024-01-12T15:06:23.000Z,86.9
2024-01-12T15:07:40.106Z,87.1
2024-01-12T15:08:57.211Z,87.1
2024-01-12T15:10:14.316Z,86.9
2024-01-12T15:11:31.421Z,86.6
2024-01-12T15:12:48.526Z,86.6
2024-01-12T15:14:05.631Z,86.4
2024-01-12T15:15:22.736Z,86.6
2024-01-12T15:16:39.841Z,86.8
2024-01-12T15:17:56.946Z,87.3
2024-01-12T15:19:13.067Z,87.6
2024-01-12T15:20:30.172Z,87.6
2024-01-12T15:21:47.277Z,87.7
2024-01-12T15:23:04.382Z,87.6
2024-01-12T15:24:21.487Z,87.6
2024-01-12T15:25:38.592Z,87.3
2024-01-12T15:26:55.697Z,87.2
2024-01-12T15:28:12.802Z,87.1
2024-01-12T15:29:29.907Z,87.1
2024-01-12T15:30:47.012Z,86.8
2024-01-12T15:32:04.117Z,86.5
2024-01-12T15:33:21.223Z,86.6
2024-01-12T15:34:38.328Z,86.7
2024-01-12T15:35:54.449Z,86.7
2024-01-12T15:37:11.554Z,87
2024-01-12T15:38:28.659Z,87
2024-01-12T15:39:45.764Z,87.3
2024-01-12T15:41:02.870Z,87.2
2024-01-12T15:42:19.975Z,87.2
2024-01-12T15:43:37.080Z,87.5
2024-01-12T15:44:54.185Z,87.8
2024-01-12T15:46:11.290Z,87.9
2024-01-12T15:47:28.396Z,87.8
2024-01-12T15:48:45.501Z,87.7
2024-01-12T15:50:02.606Z,87.4
2024-01-12T15:51:19.712Z,87.5
2024-01-12T15:52:35.833Z,87.2
2024-01-12T15:53:52.938Z,87.1
2024-01-12T15:55:10.043Z,87
2024-01-12T15:56:27.148Z,87
2024-01-12T15:57:44.253Z,86.9
2024-01-12T15:59:01.358Z,87.2
2024-01-12T16:00:18.463Z,87.4
2024-01-12T16:01:35.569Z,87.9
2024-01-12T16:02:52.674Z,87.7
2024-01-12T16:04:09.779Z,87.5
2024-01-12T16:05:26.884Z,87.7
2024-01-12T16:06:43.990Z,87.5
2024-01-12T16:08:01.095Z,87.5
2024-01-12T16:09:17.216Z,87.8
2024-01-12T16:10:34.322Z,88.3
2024-01-12T16:11:51.427Z,88
2024-01-12T16:13:08.532Z,88.1
2024-01-12T16:14:25.638Z,87.9
2024-01-12T16:15:42.743Z,87.9
2024-01-12T16:16:59.848Z,87.6
2024-01-12T16:18:16.953Z,87.6
2024-01-12T16:19:34.058Z,87.2
2024-01-12T16:20:51.164Z,87.1
2024-01-12T16:22:08.269Z,87.2
2024-01-12T16:23:25.374Z,87.2
2024-01-12T16:24:42.480Z,87.2
2024-01-12T16:25:58.601Z,87.1
2024-01-12T16:27:15.706Z,87.2
2024-01-12T16:28:32.811Z,86.9
2024-01-12T16:29:49.917Z,86.9
2024-01-12T16:31:07.022Z,86.7
2024-01-12T16:32:24.127Z,86.6
2024-01-12T16:33:41.232Z,86.9
2024-01-12T16:34:58.338Z,86.6
2024-01-12T16:36:15.444Z,86.4
2024-01-12T16:37:32.549Z,86.2
2024-01-12T16:38:49.654Z,86.1
2024-01-12T16:40:06.759Z,86.2
2024-01-12T16:41:23.865Z,86.1
2024-01-12T16:42:39.986Z,86
2024-01-12T16:43:57.092Z,86.2
2024-01-12T16:45:14.197Z,86.1
2024-01-12T16:46:31.302Z,86.2
2024-01-12T16:47:48.408Z,86.3
2024-01-12T16:49:05.513Z,86
2024-01-12T16:50:22.618Z,86.6
2024-01-12T16:52:56.828Z,86.5
2024-01-12T16:54:13.934Z,86.5
2024-01-12T16:55:31.039Z,86.6
2024-01-12T16:56:48.144Z,86.6
2024-01-12T16:58:05.249Z,86.5
2024-01-12T16:59:21.370Z,86.5
2024-01-12T17:00:38.476Z,86.3
2024-01-12T17:01:55.581Z,86.5
2024-01-12T17:03:12.686Z,86.6
2024-01-12T17:04:29.791Z,86.7
2024-01-12T17:05:46.896Z,86.7
2024-01-12T17:07:03.017Z,86.6
2024-01-12T17:08:20.123Z,86.6
2024-01-12T17:09:37.228Z,86.3
2024-01-12T17:10:54.333Z,86.3
2024-01-12T17:12:11.439Z,86.5
2024-01-12T17:13:28.544Z,86.1